sensor_id;sensor_type;location;lat;lon;timestamp;temperature;humidity
9466;DHT22;4771;48.726;9.006;2022-08-03T00:00:19;19.10;99.90
9466;DHT22;4771;48.726;9.006;2022-08-03T00:02:48;19.00;99.90
9466;DHT22;4771;48.726;9.006;2022-08-03T00:05:15;19.00;99.90
9466;DHT22;4771;48.726;9.006;2022-08-03T00:07:43;19.00;99.90
9466;DHT22;4771;48.726;9.006;2022-08-03T00:10:11;18.90;99.90
9466;DHT22;4771;48.726;9.006;2022-08-03T00:12:39;18.90;99.90
9466;DHT22;4771;48.726;9.006;2022-08-03T00:15:06;18.90;99.90
9466;DHT22;4771;48.726;9.006;2022-08-03T00:17:33;18.90;99.90
9466;DHT22;4771;48.726;9.006;2022-08-03T00:20:00;18.90;99.90
9466;DHT22;4771;48.726;9.006;2022-08-03T00:22:27;18.90;99.90
9466;DHT22;4771;48.726;9.006;2022-08-03T00:24:55;18.90;99.90
9466;DHT22;4771;48.726;9.006;2022-08-03T00:27:22;18.90;99.90
9466;DHT22;4771;48.726;9.006;2022-08-03T00:29:49;18.80;99.90
9466;DHT22;4771;48.726;9.006;2022-08-03T00:32:16;18.80;99.90
9466;DHT22;4771;48.726;9.006;2022-08-03T00:34:43;18.80;99.90
9466;DHT22;4771;48.726;9.006;2022-08-03T00:37:10;18.80;99.90
9466;DHT22;4771;48.726;9.006;2022-08-03T00:39:36;18.70;99.90
9466;DHT22;4771;48.726;9.006;2022-08-03T00:42:05;18.60;99.90
9466;DHT22;4771;48.726;9.006;2022-08-03T00:44:38;18.60;99.90
9466;DHT22;4771;48.726;9.006;2022-08-03T00:47:05;18.60;99.90
9466;DHT22;4771;48.726;9.006;2022-08-03T00:49:32;18.60;99.90
9466;DHT22;4771;48.726;9.006;2022-08-03T00:51:59;18.60;99.90
9466;DHT22;4771;48.726;9.006;2022-08-03T00:54:27;18.60;99.90
9466;DHT22;4771;48.726;9.006;2022-08-03T00:56:54;18.50;99.90
9466;DHT22;4771;48.726;9.006;2022-08-03T00:59:22;18.50;99.90
9466;DHT22;4771;48.726;9.006;2022-08-03T01:01:49;18.50;99.90
9466;DHT22;4771;48.726;9.006;2022-08-03T01:04:16;18.40;99.90
9466;DHT22;4771;48.726;9.006;2022-08-03T01:06:49;18.40;99.90
9466;DHT22;4771;48.726;9.006;2022-08-03T01:09:22;18.40;99.90
9466;DHT22;4771;48.726;9.006;2022-08-03T01:11:53;18.30;99.90
9466;DHT22;4771;48.726;9.006;2022-08-03T01:14:30;18.30;99.90
9466;DHT22;4771;48.726;9.006;2022-08-03T01:17:03;18.30;99.90
9466;DHT22;4771;48.726;9.006;2022-08-03T01:19:44;18.30;99.90
9466;DHT22;4771;48.726;9.006;2022-08-03T01:22:36;18.20;99.90
9466;DHT22;4771;48.726;9.006;2022-08-03T01:25:12;18.30;99.90
9466;DHT22;4771;48.726;9.006;2022-08-03T01:27:50;18.30;99.90
9466;DHT22;4771;48.726;9.006;2022-08-03T01:30:23;18.20;99.90
9466;DHT22;4771;48.726;9.006;2022-08-03T01:32:54;18.20;99.90
9466;DHT22;4771;48.726;9.006;2022-08-03T01:35:28;18.10;99.90
9466;DHT22;4771;48.726;9.006;2022-08-03T01:38:02;18.10;99.90
9466;DHT22;4771;48.726;9.006;2022-08-03T01:40:31;18.10;99.90
9466;DHT22;4771;48.726;9.006;2022-08-03T01:43:02;18.20;99.90
9466;DHT22;4771;48.726;9.006;2022-08-03T01:45:32;18.10;99.90
9466;DHT22;4771;48.726;9.006;2022-08-03T01:48:00;18.10;99.90
9466;DHT22;4771;48.726;9.006;2022-08-03T01:50:29;18.00;99.90
9466;DHT22;4771;48.726;9.006;2022-08-03T01:52:57;18.00;99.90
9466;DHT22;4771;48.726;9.006;2022-08-03T01:55:25;18.00;99.90
9466;DHT22;4771;48.726;9.006;2022-08-03T01:57:54;18.00;99.90
9466;DHT22;4771;48.726;9.006;2022-08-03T02:00:23;18.00;99.90
9466;DHT22;4771;48.726;9.006;2022-08-03T02:02:53;18.00;99.90
9466;DHT22;4771;48.726;9.006;2022-08-03T02:05:21;17.90;99.90
9466;DHT22;4771;48.726;9.006;2022-08-03T02:07:49;18.00;99.90
9466;DHT22;4771;48.726;9.006;2022-08-03T02:10:19;18.00;99.90
9466;DHT22;4771;48.726;9.006;2022-08-03T02:12:48;18.00;99.90
9466;DHT22;4771;48.726;9.006;2022-08-03T02:15:17;17.90;99.90
9466;DHT22;4771;48.726;9.006;2022-08-03T02:17:46;17.90;99.90
9466;DHT22;4771;48.726;9.006;2022-08-03T02:20:15;17.90;99.90
9466;DHT22;4771;48.726;9.006;2022-08-03T02:22:43;17.90;99.90
9466;DHT22;4771;48.726;9.006;2022-08-03T02:25:13;17.80;99.90
9466;DHT22;4771;48.726;9.006;2022-08-03T02:27:45;17.80;99.90
9466;DHT22;4771;48.726;9.006;2022-08-03T02:30:13;17.80;99.90
9466;DHT22;4771;48.726;9.006;2022-08-03T02:32:43;17.80;99.90
9466;DHT22;4771;48.726;9.006;2022-08-03T02:35:16;17.80;99.90
9466;DHT22;4771;48.726;9.006;2022-08-03T02:37:48;17.80;99.90
9466;DHT22;4771;48.726;9.006;2022-08-03T02:40:17;17.70;99.90
9466;DHT22;4771;48.726;9.006;2022-08-03T02:42:46;17.80;99.90
9466;DHT22;4771;48.726;9.006;2022-08-03T02:45:16;17.70;99.90
9466;DHT22;4771;48.726;9.006;2022-08-03T02:47:45;17.70;99.90
9466;DHT22;4771;48.726;9.006;2022-08-03T02:50:15;17.70;99.90
9466;DHT22;4771;48.726;9.006;2022-08-03T02:52:44;17.60;99.90
9466;DHT22;4771;48.726;9.006;2022-08-03T02:55:11;17.70;99.90
9466;DHT22;4771;48.726;9.006;2022-08-03T02:57:42;17.70;99.90
9466;DHT22;4771;48.726;9.006;2022-08-03T03:00:12;17.60;99.90
9466;DHT22;4771;48.726;9.006;2022-08-03T03:02:39;17.60;99.90
9466;DHT22;4771;48.726;9.006;2022-08-03T03:05:08;17.60;99.90
9466;DHT22;4771;48.726;9.006;2022-08-03T03:07:38;17.60;99.90
9466;DHT22;4771;48.726;9.006;2022-08-03T03:10:06;17.50;99.90
9466;DHT22;4771;48.726;9.006;2022-08-03T03:12:35;17.60;99.90
9466;DHT22;4771;48.726;9.006;2022-08-03T03:15:03;17.50;99.90
9466;DHT22;4771;48.726;9.006;2022-08-03T03:17:32;17.50;99.90
9466;DHT22;4771;48.726;9.006;2022-08-03T03:20:00;17.50;99.90
9466;DHT22;4771;48.726;9.006;2022-08-03T03:22:28;17.50;99.90
9466;DHT22;4771;48.726;9.006;2022-08-03T03:24:57;17.40;99.90
9466;DHT22;4771;48.726;9.006;2022-08-03T03:27:25;17.50;99.90
9466;DHT22;4771;48.726;9.006;2022-08-03T03:29:52;17.50;99.90
9466;DHT22;4771;48.726;9.006;2022-08-03T03:32:19;17.40;99.90
9466;DHT22;4771;48.726;9.006;2022-08-03T03:34:47;17.40;99.90
9466;DHT22;4771;48.726;9.006;2022-08-03T03:37:14;17.40;99.90
9466;DHT22;4771;48.726;9.006;2022-08-03T03:39:41;17.40;99.90
9466;DHT22;4771;48.726;9.006;2022-08-03T03:42:09;17.30;99.90
9466;DHT22;4771;48.726;9.006;2022-08-03T03:44:36;17.30;99.90
9466;DHT22;4771;48.726;9.006;2022-08-03T03:47:03;17.30;99.90
9466;DHT22;4771;48.726;9.006;2022-08-03T03:49:30;17.30;99.90
9466;DHT22;4771;48.726;9.006;2022-08-03T03:51:57;17.30;99.90
9466;DHT22;4771;48.726;9.006;2022-08-03T03:54:24;17.40;99.90
9466;DHT22;4771;48.726;9.006;2022-08-03T03:56:51;17.30;99.90
9466;DHT22;4771;48.726;9.006;2022-08-03T03:59:19;17.30;99.90
9466;DHT22;4771;48.726;9.006;2022-08-03T04:01:46;17.30;99.90
9466;DHT22;4771;48.726;9.006;2022-08-03T04:04:13;17.30;99.90
9466;DHT22;4771;48.726;9.006;2022-08-03T04:06:57;17.20;99.90
9466;DHT22;4771;48.726;9.006;2022-08-03T04:09:43;17.30;99.90
9466;DHT22;4771;48.726;9.006;2022-08-03T04:12:28;17.20;99.90
9466;DHT22;4771;48.726;9.006;2022-08-03T04:14:58;17.20;99.90
9466;DHT22;4771;48.726;9.006;2022-08-03T04:17:27;17.20;99.90
9466;DHT22;4771;48.726;9.006;2022-08-03T04:19:56;17.30;99.90
9466;DHT22;4771;48.726;9.006;2022-08-03T04:22:26;17.20;99.90
9466;DHT22;4771;48.726;9.006;2022-08-03T04:24:57;17.20;99.90
9466;DHT22;4771;48.726;9.006;2022-08-03T04:27:30;17.20;99.90
9466;DHT22;4771;48.726;9.006;2022-08-03T04:30:02;17.30;99.90
9466;DHT22;4771;48.726;9.006;2022-08-03T04:32:29;17.30;99.90
9466;DHT22;4771;48.726;9.006;2022-08-03T04:34:57;17.30;99.90
9466;DHT22;4771;48.726;9.006;2022-08-03T04:37:29;17.30;99.90
9466;DHT22;4771;48.726;9.006;2022-08-03T04:40:01;17.30;99.90
9466;DHT22;4771;48.726;9.006;2022-08-03T04:42:30;17.30;99.90
9466;DHT22;4771;48.726;9.006;2022-08-03T04:45:00;17.40;99.90
9466;DHT22;4771;48.726;9.006;2022-08-03T04:47:29;17.40;99.90
9466;DHT22;4771;48.726;9.006;2022-08-03T04:49:59;17.40;99.90
9466;DHT22;4771;48.726;9.006;2022-08-03T04:52:26;17.40;99.90
9466;DHT22;4771;48.726;9.006;2022-08-03T04:54:53;17.40;99.90
9466;DHT22;4771;48.726;9.006;2022-08-03T04:57:20;17.50;99.90
9466;DHT22;4771;48.726;9.006;2022-08-03T04:59:47;17.50;99.90
9466;DHT22;4771;48.726;9.006;2022-08-03T05:02:18;17.60;99.90
9466;DHT22;4771;48.726;9.006;2022-08-03T05:04:45;17.70;99.90
9466;DHT22;4771;48.726;9.006;2022-08-03T05:07:12;17.70;99.90
9466;DHT22;4771;48.726;9.006;2022-08-03T05:09:40;17.80;99.90
9466;DHT22;4771;48.726;9.006;2022-08-03T05:12:07;17.80;99.90
9466;DHT22;4771;48.726;9.006;2022-08-03T05:14:35;17.90;99.90
9466;DHT22;4771;48.726;9.006;2022-08-03T05:17:03;17.90;99.90
9466;DHT22;4771;48.726;9.006;2022-08-03T05:19:31;18.00;99.90
9466;DHT22;4771;48.726;9.006;2022-08-03T05:21:58;18.10;99.90
9466;DHT22;4771;48.726;9.006;2022-08-03T05:24:25;18.20;99.90
9466;DHT22;4771;48.726;9.006;2022-08-03T05:26:52;18.30;99.90
9466;DHT22;4771;48.726;9.006;2022-08-03T05:29:19;18.30;99.90
9466;DHT22;4771;48.726;9.006;2022-08-03T05:31:46;18.40;99.90
9466;DHT22;4771;48.726;9.006;2022-08-03T05:34:13;18.50;99.90
9466;DHT22;4771;48.726;9.006;2022-08-03T05:36:42;18.60;99.90
9466;DHT22;4771;48.726;9.006;2022-08-03T05:39:08;18.70;99.90
9466;DHT22;4771;48.726;9.006;2022-08-03T05:41:35;18.70;99.90
9466;DHT22;4771;48.726;9.006;2022-08-03T05:44:02;18.80;99.90
9466;DHT22;4771;48.726;9.006;2022-08-03T05:46:29;18.90;99.90
9466;DHT22;4771;48.726;9.006;2022-08-03T05:48:57;19.00;99.90
9466;DHT22;4771;48.726;9.006;2022-08-03T05:51:23;19.00;99.90
9466;DHT22;4771;48.726;9.006;2022-08-03T05:53:52;19.10;99.90
9466;DHT22;4771;48.726;9.006;2022-08-03T05:56:21;19.20;99.90
9466;DHT22;4771;48.726;9.006;2022-08-03T05:58:49;19.30;99.90
9466;DHT22;4771;48.726;9.006;2022-08-03T06:01:17;19.40;99.90
9466;DHT22;4771;48.726;9.006;2022-08-03T06:03:46;19.40;99.90
9466;DHT22;4771;48.726;9.006;2022-08-03T06:06:13;19.50;99.90
9466;DHT22;4771;48.726;9.006;2022-08-03T06:08:41;19.60;99.90
9466;DHT22;4771;48.726;9.006;2022-08-03T06:11:10;19.60;99.90
9466;DHT22;4771;48.726;9.006;2022-08-03T06:13:37;19.80;99.90
9466;DHT22;4771;48.726;9.006;2022-08-03T06:16:04;19.90;99.90
9466;DHT22;4771;48.726;9.006;2022-08-03T06:18:31;20.00;99.90
9466;DHT22;4771;48.726;9.006;2022-08-03T06:20:58;20.10;99.90
9466;DHT22;4771;48.726;9.006;2022-08-03T06:23:25;20.20;99.90
9466;DHT22;4771;48.726;9.006;2022-08-03T06:25:52;20.30;99.90
9466;DHT22;4771;48.726;9.006;2022-08-03T06:28:20;20.40;99.90
9466;DHT22;4771;48.726;9.006;2022-08-03T06:30:47;20.50;99.90
9466;DHT22;4771;48.726;9.006;2022-08-03T06:33:14;20.70;99.90
9466;DHT22;4771;48.726;9.006;2022-08-03T06:35:41;20.80;99.90
9466;DHT22;4771;48.726;9.006;2022-08-03T06:38:08;21.00;99.90
9466;DHT22;4771;48.726;9.006;2022-08-03T06:40:35;21.10;99.90
9466;DHT22;4771;48.726;9.006;2022-08-03T06:43:05;21.20;99.90
9466;DHT22;4771;48.726;9.006;2022-08-03T06:45:34;21.30;99.90
9466;DHT22;4771;48.726;9.006;2022-08-03T06:48:02;21.40;99.90
9466;DHT22;4771;48.726;9.006;2022-08-03T06:50:29;21.50;99.90
9466;DHT22;4771;48.726;9.006;2022-08-03T06:52:56;21.60;99.90
9466;DHT22;4771;48.726;9.006;2022-08-03T06:55:23;21.70;99.90
9466;DHT22;4771;48.726;9.006;2022-08-03T06:57:50;21.80;99.90
9466;DHT22;4771;48.726;9.006;2022-08-03T07:00:17;21.90;99.90
9466;DHT22;4771;48.726;9.006;2022-08-03T07:02:46;22.00;99.90
9466;DHT22;4771;48.726;9.006;2022-08-03T07:05:13;22.20;99.90
9466;DHT22;4771;48.726;9.006;2022-08-03T07:07:41;22.20;99.90
9466;DHT22;4771;48.726;9.006;2022-08-03T07:10:09;22.30;99.90
9466;DHT22;4771;48.726;9.006;2022-08-03T07:12:37;22.40;99.90
9466;DHT22;4771;48.726;9.006;2022-08-03T07:15:05;22.60;99.90
9466;DHT22;4771;48.726;9.006;2022-08-03T07:17:33;22.70;99.90
9466;DHT22;4771;48.726;9.006;2022-08-03T07:20:04;22.80;99.90
9466;DHT22;4771;48.726;9.006;2022-08-03T07:22:31;22.90;99.90
9466;DHT22;4771;48.726;9.006;2022-08-03T07:24:58;23.10;99.90
9466;DHT22;4771;48.726;9.006;2022-08-03T07:27:25;23.20;99.90
9466;DHT22;4771;48.726;9.006;2022-08-03T07:29:53;23.30;99.90
9466;DHT22;4771;48.726;9.006;2022-08-03T07:32:20;23.40;99.90
9466;DHT22;4771;48.726;9.006;2022-08-03T07:34:47;23.50;99.90
9466;DHT22;4771;48.726;9.006;2022-08-03T07:37:16;23.60;99.90
9466;DHT22;4771;48.726;9.006;2022-08-03T07:39:43;23.70;99.90
9466;DHT22;4771;48.726;9.006;2022-08-03T07:42:10;23.80;99.90
9466;DHT22;4771;48.726;9.006;2022-08-03T07:44:37;23.80;99.90
9466;DHT22;4771;48.726;9.006;2022-08-03T07:47:04;23.90;99.90
9466;DHT22;4771;48.726;9.006;2022-08-03T07:49:31;24.00;99.90
9466;DHT22;4771;48.726;9.006;2022-08-03T07:51:59;24.10;99.90
9466;DHT22;4771;48.726;9.006;2022-08-03T07:54:44;24.10;99.90
9466;DHT22;4771;48.726;9.006;2022-08-03T07:57:11;24.20;99.90
9466;DHT22;4771;48.726;9.006;2022-08-03T07:59:38;24.20;99.90
9466;DHT22;4771;48.726;9.006;2022-08-03T08:02:05;24.30;99.90
9466;DHT22;4771;48.726;9.006;2022-08-03T08:04:32;24.40;99.90
9466;DHT22;4771;48.726;9.006;2022-08-03T08:06:59;24.50;99.90
9466;DHT22;4771;48.726;9.006;2022-08-03T08:09:26;24.60;99.90
9466;DHT22;4771;48.726;9.006;2022-08-03T08:11:55;24.70;99.90
9466;DHT22;4771;48.726;9.006;2022-08-03T08:14:22;24.80;99.90
9466;DHT22;4771;48.726;9.006;2022-08-03T08:16:49;24.90;99.90
9466;DHT22;4771;48.726;9.006;2022-08-03T08:19:16;25.00;99.90
9466;DHT22;4771;48.726;9.006;2022-08-03T08:21:44;25.00;99.90
9466;DHT22;4771;48.726;9.006;2022-08-03T08:24:10;25.20;99.90
9466;DHT22;4771;48.726;9.006;2022-08-03T08:26:37;25.20;99.90
9466;DHT22;4771;48.726;9.006;2022-08-03T08:29:06;25.30;99.90
9466;DHT22;4771;48.726;9.006;2022-08-03T08:31:32;25.50;99.90
9466;DHT22;4771;48.726;9.006;2022-08-03T08:33:59;25.60;99.90
9466;DHT22;4771;48.726;9.006;2022-08-03T08:36:30;25.70;99.90
9466;DHT22;4771;48.726;9.006;2022-08-03T08:38:58;25.80;99.90
9466;DHT22;4771;48.726;9.006;2022-08-03T08:41:25;25.90;99.90
9466;DHT22;4771;48.726;9.006;2022-08-03T08:43:53;26.00;98.70
9466;DHT22;4771;48.726;9.006;2022-08-03T08:46:21;26.10;98.80
9466;DHT22;4771;48.726;9.006;2022-08-03T08:48:50;26.20;97.90
9466;DHT22;4771;48.726;9.006;2022-08-03T08:51:19;26.30;98.30
9466;DHT22;4771;48.726;9.006;2022-08-03T08:53:49;26.40;96.90
9466;DHT22;4771;48.726;9.006;2022-08-03T08:56:17;26.50;96.50
9466;DHT22;4771;48.726;9.006;2022-08-03T08:58:48;26.70;96.80
9466;DHT22;4771;48.726;9.006;2022-08-03T09:01:17;26.70;95.30
9466;DHT22;4771;48.726;9.006;2022-08-03T09:03:46;26.90;96.00
9466;DHT22;4771;48.726;9.006;2022-08-03T09:06:13;27.00;94.90
9466;DHT22;4771;48.726;9.006;2022-08-03T09:08:41;27.10;95.20
9466;DHT22;4771;48.726;9.006;2022-08-03T09:11:08;27.30;93.40
9466;DHT22;4771;48.726;9.006;2022-08-03T09:13:35;27.30;92.00
9466;DHT22;4771;48.726;9.006;2022-08-03T09:16:09;27.30;90.80
9466;DHT22;4771;48.726;9.006;2022-08-03T09:18:37;27.40;91.50
9466;DHT22;4771;48.726;9.006;2022-08-03T09:21:21;27.60;89.20
9466;DHT22;4771;48.726;9.006;2022-08-03T09:23:49;27.70;80.80
9466;DHT22;4771;48.726;9.006;2022-08-03T09:26:21;27.80;82.50
9466;DHT22;4771;48.726;9.006;2022-08-03T09:28:57;28.10;84.00
9466;DHT22;4771;48.726;9.006;2022-08-03T09:31:31;28.20;83.90
9466;DHT22;4771;48.726;9.006;2022-08-03T09:34:03;28.30;78.30
9466;DHT22;4771;48.726;9.006;2022-08-03T09:36:37;28.50;77.80
9466;DHT22;4771;48.726;9.006;2022-08-03T09:39:05;28.50;73.50
9466;DHT22;4771;48.726;9.006;2022-08-03T09:41:35;28.60;73.70
9466;DHT22;4771;48.726;9.006;2022-08-03T09:44:03;28.70;73.10
9466;DHT22;4771;48.726;9.006;2022-08-03T09:46:30;28.70;69.70
9466;DHT22;4771;48.726;9.006;2022-08-03T09:49:10;28.80;70.60
9466;DHT22;4771;48.726;9.006;2022-08-03T09:51:39;28.90;67.90
9466;DHT22;4771;48.726;9.006;2022-08-03T09:54:06;28.90;65.20
9466;DHT22;4771;48.726;9.006;2022-08-03T09:56:41;28.90;64.00
9466;DHT22;4771;48.726;9.006;2022-08-03T09:59:08;29.00;67.20
9466;DHT22;4771;48.726;9.006;2022-08-03T10:01:36;29.00;64.00
9466;DHT22;4771;48.726;9.006;2022-08-03T10:04:10;28.90;62.30
9466;DHT22;4771;48.726;9.006;2022-08-03T10:06:40;28.70;60.80
9466;DHT22;4771;48.726;9.006;2022-08-03T10:09:08;28.90;64.50
9466;DHT22;4771;48.726;9.006;2022-08-03T10:11:36;28.90;63.80
9466;DHT22;4771;48.726;9.006;2022-08-03T10:14:04;29.10;62.90
9466;DHT22;4771;48.726;9.006;2022-08-03T10:16:34;29.20;61.50
9466;DHT22;4771;48.726;9.006;2022-08-03T10:19:02;29.30;61.70
9466;DHT22;4771;48.726;9.006;2022-08-03T10:21:32;29.30;60.40
9466;DHT22;4771;48.726;9.006;2022-08-03T10:24:04;29.40;59.00
9466;DHT22;4771;48.726;9.006;2022-08-03T10:26:33;29.60;59.90
9466;DHT22;4771;48.726;9.006;2022-08-03T10:29:02;29.60;58.60
9466;DHT22;4771;48.726;9.006;2022-08-03T10:31:34;29.80;56.70
9466;DHT22;4771;48.726;9.006;2022-08-03T10:34:01;30.00;58.20
9466;DHT22;4771;48.726;9.006;2022-08-03T10:36:31;30.20;56.00
9466;DHT22;4771;48.726;9.006;2022-08-03T10:39:00;30.20;55.20
9466;DHT22;4771;48.726;9.006;2022-08-03T10:41:35;30.40;55.30
9466;DHT22;4771;48.726;9.006;2022-08-03T10:44:05;30.50;53.50
9466;DHT22;4771;48.726;9.006;2022-08-03T10:46:34;30.60;53.40
9466;DHT22;4771;48.726;9.006;2022-08-03T10:49:02;30.40;52.00
9466;DHT22;4771;48.726;9.006;2022-08-03T10:51:30;30.40;53.50
9466;DHT22;4771;48.726;9.006;2022-08-03T10:53:58;30.40;54.70
9466;DHT22;4771;48.726;9.006;2022-08-03T10:56:40;30.50;53.10
9466;DHT22;4771;48.726;9.006;2022-08-03T10:59:56;30.60;52.60
9466;DHT22;4771;48.726;9.006;2022-08-03T11:03:04;30.70;52.10
9466;DHT22;4771;48.726;9.006;2022-08-03T11:05:37;30.80;52.40
9466;DHT22;4771;48.726;9.006;2022-08-03T11:08:28;30.90;51.50
9466;DHT22;4771;48.726;9.006;2022-08-03T11:10:57;31.00;52.40
9466;DHT22;4771;48.726;9.006;2022-08-03T11:13:26;31.00;50.10
9466;DHT22;4771;48.726;9.006;2022-08-03T11:15:57;31.10;51.00
9466;DHT22;4771;48.726;9.006;2022-08-03T11:18:25;31.30;51.90
9466;DHT22;4771;48.726;9.006;2022-08-03T11:20:54;31.50;53.10
9466;DHT22;4771;48.726;9.006;2022-08-03T11:23:42;31.70;53.70
9466;DHT22;4771;48.726;9.006;2022-08-03T11:26:14;31.90;49.90
9466;DHT22;4771;48.726;9.006;2022-08-03T11:28:43;31.80;49.20
9466;DHT22;4771;48.726;9.006;2022-08-03T11:31:45;31.70;48.20
9466;DHT22;4771;48.726;9.006;2022-08-03T11:34:15;31.80;49.40
9466;DHT22;4771;48.726;9.006;2022-08-03T11:39:48;31.90;47.30
9466;DHT22;4771;48.726;9.006;2022-08-03T11:42:41;32.00;46.80
9466;DHT22;4771;48.726;9.006;2022-08-03T11:45:12;32.00;48.20
9466;DHT22;4771;48.726;9.006;2022-08-03T11:47:40;32.10;47.10
9466;DHT22;4771;48.726;9.006;2022-08-03T11:50:10;32.20;46.90
9466;DHT22;4771;48.726;9.006;2022-08-03T11:52:39;32.30;45.80
9466;DHT22;4771;48.726;9.006;2022-08-03T11:55:12;32.40;45.50
9466;DHT22;4771;48.726;9.006;2022-08-03T11:57:40;32.60;46.70
9466;DHT22;4771;48.726;9.006;2022-08-03T12:00:27;32.70;45.70
9466;DHT22;4771;48.726;9.006;2022-08-03T12:03:00;32.90;44.40
9466;DHT22;4771;48.726;9.006;2022-08-03T12:05:46;33.00;42.70
9466;DHT22;4771;48.726;9.006;2022-08-03T12:08:15;33.20;43.60
9466;DHT22;4771;48.726;9.006;2022-08-03T12:10:48;33.30;43.40
9466;DHT22;4771;48.726;9.006;2022-08-03T12:13:15;33.40;41.50
9466;DHT22;4771;48.726;9.006;2022-08-03T12:15:43;33.50;40.90
9466;DHT22;4771;48.726;9.006;2022-08-03T12:18:17;33.60;40.20
9466;DHT22;4771;48.726;9.006;2022-08-03T12:20:47;33.70;38.40
9466;DHT22;4771;48.726;9.006;2022-08-03T12:23:14;33.20;37.30
9466;DHT22;4771;48.726;9.006;2022-08-03T12:25:42;32.80;38.30
9466;DHT22;4771;48.726;9.006;2022-08-03T12:28:15;32.60;39.00
9466;DHT22;4771;48.726;9.006;2022-08-03T12:30:45;32.70;39.20
9466;DHT22;4771;48.726;9.006;2022-08-03T12:33:14;32.80;39.40
9466;DHT22;4771;48.726;9.006;2022-08-03T12:35:41;33.10;39.80
9466;DHT22;4771;48.726;9.006;2022-08-03T12:38:10;33.40;38.40
9466;DHT22;4771;48.726;9.006;2022-08-03T12:40:38;33.80;38.60
9466;DHT22;4771;48.726;9.006;2022-08-03T12:43:12;34.10;38.30
9466;DHT22;4771;48.726;9.006;2022-08-03T12:45:39;34.30;36.50
9466;DHT22;4771;48.726;9.006;2022-08-03T12:48:09;34.40;37.80
9466;DHT22;4771;48.726;9.006;2022-08-03T12:50:37;34.30;38.40
9466;DHT22;4771;48.726;9.006;2022-08-03T12:53:07;34.30;36.40
9466;DHT22;4771;48.726;9.006;2022-08-03T12:55:36;34.30;35.70
9466;DHT22;4771;48.726;9.006;2022-08-03T12:58:06;34.30;34.70
9466;DHT22;4771;48.726;9.006;2022-08-03T13:00:35;34.40;36.10
9466;DHT22;4771;48.726;9.006;2022-08-03T13:03:04;34.40;36.00
9466;DHT22;4771;48.726;9.006;2022-08-03T13:05:42;34.40;35.90
9466;DHT22;4771;48.726;9.006;2022-08-03T13:08:17;34.40;34.40
9466;DHT22;4771;48.726;9.006;2022-08-03T13:10:46;34.50;35.40
9466;DHT22;4771;48.726;9.006;2022-08-03T13:13:13;34.60;34.30
9466;DHT22;4771;48.726;9.006;2022-08-03T13:15:40;34.80;33.70
9466;DHT22;4771;48.726;9.006;2022-08-03T13:18:07;34.70;32.50
9466;DHT22;4771;48.726;9.006;2022-08-03T13:20:34;34.60;31.60
9466;DHT22;4771;48.726;9.006;2022-08-03T13:23:01;34.60;30.90
9466;DHT22;4771;48.726;9.006;2022-08-03T13:25:28;34.80;29.90
9466;DHT22;4771;48.726;9.006;2022-08-03T13:27:56;34.90;29.90
9466;DHT22;4771;48.726;9.006;2022-08-03T13:30:23;34.70;29.30
9466;DHT22;4771;48.726;9.006;2022-08-03T13:32:50;34.70;31.20
9466;DHT22;4771;48.726;9.006;2022-08-03T13:35:17;34.80;31.70
9466;DHT22;4771;48.726;9.006;2022-08-03T13:37:44;34.90;31.30
9466;DHT22;4771;48.726;9.006;2022-08-03T13:40:11;34.90;31.10
9466;DHT22;4771;48.726;9.006;2022-08-03T13:42:38;34.90;32.00
9466;DHT22;4771;48.726;9.006;2022-08-03T13:45:07;34.90;31.60
9466;DHT22;4771;48.726;9.006;2022-08-03T13:47:35;35.20;30.90
9466;DHT22;4771;48.726;9.006;2022-08-03T13:50:03;35.30;30.00
9466;DHT22;4771;48.726;9.006;2022-08-03T13:52:32;35.30;30.20
9466;DHT22;4771;48.726;9.006;2022-08-03T13:54:59;35.50;30.10
9466;DHT22;4771;48.726;9.006;2022-08-03T13:57:26;35.70;30.20
9466;DHT22;4771;48.726;9.006;2022-08-03T13:59:53;35.80;29.50
9466;DHT22;4771;48.726;9.006;2022-08-03T14:02:23;35.90;29.50
9466;DHT22;4771;48.726;9.006;2022-08-03T14:04:50;35.80;28.70
9466;DHT22;4771;48.726;9.006;2022-08-03T14:07:16;36.00;28.10
9466;DHT22;4771;48.726;9.006;2022-08-03T14:09:44;36.00;28.20
9466;DHT22;4771;48.726;9.006;2022-08-03T14:12:11;35.90;27.50
9466;DHT22;4771;48.726;9.006;2022-08-03T14:14:38;35.90;28.10
9466;DHT22;4771;48.726;9.006;2022-08-03T14:17:05;36.00;27.50
9466;DHT22;4771;48.726;9.006;2022-08-03T14:19:33;36.10;27.30
9466;DHT22;4771;48.726;9.006;2022-08-03T14:22:00;36.20;27.50
9466;DHT22;4771;48.726;9.006;2022-08-03T14:24:27;36.40;28.20
9466;DHT22;4771;48.726;9.006;2022-08-03T14:26:54;36.40;26.80
9466;DHT22;4771;48.726;9.006;2022-08-03T14:29:20;36.70;28.60
9466;DHT22;4771;48.726;9.006;2022-08-03T14:31:47;36.90;29.10
9466;DHT22;4771;48.726;9.006;2022-08-03T14:34:14;37.10;27.80
9466;DHT22;4771;48.726;9.006;2022-08-03T14:36:42;37.40;26.60
9466;DHT22;4771;48.726;9.006;2022-08-03T14:39:11;37.70;26.60
9466;DHT22;4771;48.726;9.006;2022-08-03T14:41:38;37.70;26.90
9466;DHT22;4771;48.726;9.006;2022-08-03T14:44:05;38.20;27.20
9466;DHT22;4771;48.726;9.006;2022-08-03T14:46:32;38.80;24.80
9466;DHT22;4771;48.726;9.006;2022-08-03T14:48:59;41.10;23.40
9466;DHT22;4771;48.726;9.006;2022-08-03T14:51:26;44.40;21.60
9466;DHT22;4771;48.726;9.006;2022-08-03T14:53:55;46.70;19.60
9466;DHT22;4771;48.726;9.006;2022-08-03T14:56:22;48.50;17.70
9466;DHT22;4771;48.726;9.006;2022-08-03T14:58:49;49.10;16.40
9466;DHT22;4771;48.726;9.006;2022-08-03T15:01:16;50.10;15.50
9466;DHT22;4771;48.726;9.006;2022-08-03T15:03:43;51.10;15.10
9466;DHT22;4771;48.726;9.006;2022-08-03T15:06:11;51.50;14.70
9466;DHT22;4771;48.726;9.006;2022-08-03T15:08:38;51.50;13.40
9466;DHT22;4771;48.726;9.006;2022-08-03T15:11:06;51.30;13.10
9466;DHT22;4771;48.726;9.006;2022-08-03T15:13:33;50.50;13.40
9466;DHT22;4771;48.726;9.006;2022-08-03T15:16:00;49.80;13.30
9466;DHT22;4771;48.726;9.006;2022-08-03T15:18:27;50.00;13.50
9466;DHT22;4771;48.726;9.006;2022-08-03T15:20:54;48.40;13.60
9466;DHT22;4771;48.726;9.006;2022-08-03T15:23:21;45.90;13.80
9466;DHT22;4771;48.726;9.006;2022-08-03T15:25:48;43.80;14.70
9466;DHT22;4771;48.726;9.006;2022-08-03T15:28:16;43.30;16.00
9466;DHT22;4771;48.726;9.006;2022-08-03T15:30:43;43.20;15.80
9466;DHT22;4771;48.726;9.006;2022-08-03T15:33:10;43.20;15.80
9466;DHT22;4771;48.726;9.006;2022-08-03T15:35:37;42.30;17.00
9466;DHT22;4771;48.726;9.006;2022-08-03T15:38:03;40.90;17.70
9466;DHT22;4771;48.726;9.006;2022-08-03T15:40:31;39.80;18.50
9466;DHT22;4771;48.726;9.006;2022-08-03T15:42:59;38.50;19.20
9466;DHT22;4771;48.726;9.006;2022-08-03T15:45:27;37.20;19.90
9466;DHT22;4771;48.726;9.006;2022-08-03T15:47:54;36.60;20.70
9466;DHT22;4771;48.726;9.006;2022-08-03T15:50:21;36.10;21.00
9466;DHT22;4771;48.726;9.006;2022-08-03T15:52:48;35.70;21.10
9466;DHT22;4771;48.726;9.006;2022-08-03T15:55:15;35.50;21.50
9466;DHT22;4771;48.726;9.006;2022-08-03T15:57:41;35.20;21.80
9466;DHT22;4771;48.726;9.006;2022-08-03T16:00:09;35.00;22.10
9466;DHT22;4771;48.726;9.006;2022-08-03T16:02:38;35.20;22.60
9466;DHT22;4771;48.726;9.006;2022-08-03T16:05:08;35.10;22.50
9466;DHT22;4771;48.726;9.006;2022-08-03T16:07:35;34.80;22.90
9466;DHT22;4771;48.726;9.006;2022-08-03T16:10:13;34.70;23.20
9466;DHT22;4771;48.726;9.006;2022-08-03T16:12:41;34.40;23.40
9466;DHT22;4771;48.726;9.006;2022-08-03T16:15:09;34.10;24.10
9466;DHT22;4771;48.726;9.006;2022-08-03T16:17:38;33.90;24.40